createdAt,value
2018-05-23T00:00:47.498Z,17.90
2018-05-23T00:03:14.996Z,17.90
2018-05-23T00:05:42.490Z,17.90
2018-05-23T00:08:10.104Z,17.90
2018-05-23T00:10:38.387Z,18.00
2018-05-23T00:13:05.946Z,18.00
2018-05-23T00:15:33.450Z,18.00
2018-05-23T00:18:00.961Z,18.00
2018-05-23T00:20:28.479Z,18.00
2018-05-23T00:22:55.978Z,18.00
2018-05-23T00:25:23.479Z,17.90
2018-05-23T00:27:51.023Z,17.90
2018-05-23T00:30:18.515Z,17.80
2018-05-23T00:32:46.108Z,17.70
2018-05-23T00:35:14.375Z,17.70
2018-05-23T00:37:42.642Z,17.70
2018-05-23T00:40:10.923Z,17.70
2018-05-23T00:42:39.217Z,17.70
2018-05-23T00:45:06.734Z,17.60
2018-05-23T00:47:34.331Z,17.60
2018-05-23T00:50:02.603Z,17.50
2018-05-23T00:52:30.986Z,17.50
2018-05-23T00:55:11.346Z,17.50
2018-05-23T00:57:39.722Z,17.50
2018-05-23T01:00:07.306Z,17.50
2018-05-23T01:02:34.808Z,17.50
2018-05-23T01:05:02.312Z,17.50
2018-05-23T01:07:29.815Z,17.50
2018-05-23T01:09:57.317Z,17.40
2018-05-23T01:12:24.825Z,17.40
2018-05-23T01:14:52.346Z,17.40
2018-05-23T01:17:19.847Z,17.40
2018-05-23T01:19:47.347Z,17.40
2018-05-23T01:22:14.906Z,17.40
2018-05-23T01:24:43.184Z,17.40
2018-05-23T01:27:10.687Z,17.30
2018-05-23T01:29:38.224Z,17.40
2018-05-23T01:32:05.714Z,17.40
2018-05-23T01:34:33.203Z,17.40
2018-05-23T01:37:01.472Z,17.40
2018-05-23T01:39:29.739Z,17.40
2018-05-23T01:41:58.978Z,17.40
2018-05-23T01:44:26.475Z,17.40
2018-05-23T01:46:53.967Z,17.40
2018-05-23T01:49:26.098Z,17.40
2018-05-23T01:51:53.590Z,17.40
2018-05-23T01:54:21.855Z,17.40
2018-05-23T01:56:49.357Z,17.40
2018-05-23T01:59:16.855Z,17.40
2018-05-23T02:01:44.355Z,17.40
2018-05-23T02:04:11.881Z,17.40
2018-05-23T02:06:39.383Z,17.40
2018-05-23T02:09:07.034Z,17.40
2018-05-23T02:11:35.312Z,17.30
2018-05-23T02:14:03.580Z,17.30
2018-05-23T02:16:31.859Z,17.30
2018-05-23T02:18:59.415Z,17.30
2018-05-23T02:21:27.675Z,17.30
2018-05-23T02:23:55.977Z,17.30
2018-05-23T02:26:23.534Z,17.30
2018-05-23T02:28:51.098Z,17.30
2018-05-23T02:31:18.611Z,17.30
2018-05-23T02:33:46.107Z,17.30
2018-05-23T02:36:13.614Z,17.30
2018-05-23T02:38:41.115Z,17.30
2018-05-23T02:41:09.405Z,17.30
2018-05-23T02:43:36.908Z,17.30
2018-05-23T02:46:04.414Z,17.30
2018-05-23T02:48:32.670Z,17.30
2018-05-23T02:51:00.937Z,17.30
2018-05-23T02:53:28.518Z,17.30
2018-05-23T02:55:56.781Z,17.30
2018-05-23T02:58:25.072Z,17.30
2018-05-23T03:00:53.354Z,17.30
2018-05-23T03:03:20.911Z,17.30
2018-05-23T03:05:49.189Z,17.20
2018-05-23T03:08:17.461Z,17.20
2018-05-23T03:10:45.723Z,17.10
2018-05-23T03:13:13.991Z,17.10
2018-05-23T03:15:43.007Z,17.00
2018-05-23T03:18:10.550Z,17.00
2018-05-23T03:20:38.848Z,17.00
2018-05-23T03:23:06.343Z,17.00
2018-05-23T03:25:33.867Z,17.00
2018-05-23T03:28:01.368Z,17.00
2018-05-23T03:30:28.881Z,17.10
2018-05-23T03:32:56.373Z,17.10
2018-05-23T03:35:23.859Z,17.00
2018-05-23T03:37:51.363Z,17.10
2018-05-23T03:40:18.866Z,17.10
2018-05-23T03:42:46.378Z,17.10
2018-05-23T03:45:13.883Z,17.00
2018-05-23T03:47:41.387Z,17.00
2018-05-23T03:50:08.953Z,17.00
2018-05-23T03:52:36.494Z,17.10
2018-05-23T03:55:04.777Z,17.10
2018-05-23T03:57:33.042Z,17.10
2018-05-23T04:00:13.051Z,17.10
2018-05-23T04:02:52.610Z,17.10
2018-05-23T04:05:32.018Z,17.10
2018-05-23T04:07:59.545Z,17.10
2018-05-23T04:10:27.808Z,17.10
2018-05-23T04:12:56.079Z,17.10
2018-05-23T04:15:24.425Z,17.10
2018-05-23T04:17:52.615Z,17.10
2018-05-23T04:20:20.116Z,17.10
2018-05-23T04:22:47.606Z,17.10
2018-05-23T04:25:15.120Z,17.10
2018-05-23T04:27:42.682Z,17.10
2018-05-23T04:30:10.273Z,17.10
2018-05-23T04:32:37.779Z,17.10
2018-05-23T04:35:06.047Z,17.10
2018-05-23T04:37:35.052Z,17.10
2018-05-23T04:40:03.326Z,17.10
2018-05-23T04:42:31.597Z,17.20
2018-05-23T04:44:59.177Z,17.10
2018-05-23T04:47:26.735Z,17.20
2018-05-23T04:49:54.988Z,17.20
2018-05-23T04:52:22.567Z,17.20
2018-05-23T04:54:50.828Z,17.30
2018-05-23T04:57:18.424Z,17.30
2018-05-23T04:59:45.973Z,17.40
2018-05-23T05:02:13.465Z,17.40
2018-05-23T05:04:40.989Z,17.40
2018-05-23T05:07:08.543Z,17.50
2018-05-23T05:09:36.810Z,17.60
2018-05-23T05:12:05.071Z,17.70
2018-05-23T05:14:32.655Z,17.60
2018-05-23T05:17:00.219Z,17.70
2018-05-23T05:19:27.724Z,17.70
2018-05-23T05:21:55.334Z,17.60
2018-05-23T05:24:22.894Z,17.60
2018-05-23T05:26:51.149Z,17.50
2018-05-23T05:29:19.434Z,17.50
2018-05-23T05:31:47.780Z,17.60
2018-05-23T05:34:15.251Z,17.50
2018-05-23T05:36:42.752Z,17.60
2018-05-23T05:39:10.294Z,17.60
2018-05-23T05:41:38.567Z,17.60
2018-05-23T05:44:06.839Z,17.60
2018-05-23T05:46:35.132Z,17.60
2018-05-23T05:49:02.643Z,17.60
2018-05-23T05:51:30.153Z,17.60
2018-05-23T05:53:57.696Z,17.60
2018-05-23T05:56:25.959Z,17.80
2018-05-23T05:58:53.475Z,17.70
2018-05-23T06:01:20.975Z,17.90
2018-05-23T06:03:49.238Z,18.10
2018-05-23T06:06:16.759Z,18.10
2018-05-23T06:08:44.266Z,18.20
2018-05-23T06:11:11.944Z,18.30
2018-05-23T06:13:39.446Z,18.40
2018-05-23T06:16:06.960Z,18.40
2018-05-23T06:18:35.240Z,18.50
2018-05-23T06:21:02.733Z,18.50
2018-05-23T06:23:30.358Z,18.50
2018-05-23T06:25:57.846Z,18.60
2018-05-23T06:28:25.379Z,18.70
2018-05-23T06:30:52.933Z,18.80
2018-05-23T06:33:20.445Z,18.80
2018-05-23T06:35:47.942Z,18.90
2018-05-23T06:38:16.226Z,19.00
2018-05-23T06:40:43.791Z,19.00
2018-05-23T06:43:11.284Z,19.10
2018-05-23T06:45:38.807Z,19.10
2018-05-23T06:48:06.357Z,19.20
2018-05-23T06:50:33.917Z,19.20
2018-05-23T06:53:02.177Z,19.40
2018-05-23T06:55:30.466Z,19.50
2018-05-23T06:57:58.747Z,19.70
2018-05-23T07:00:26.386Z,19.70
2018-05-23T07:02:53.837Z,19.90
2018-05-23T07:05:21.427Z,20.10
2018-05-23T07:07:48.944Z,20.30
2018-05-23T07:10:16.542Z,20.40
2018-05-23T07:12:44.803Z,20.80
2018-05-23T07:15:13.088Z,20.80
2018-05-23T07:17:41.367Z,20.90
2018-05-23T07:20:09.656Z,20.80
2018-05-23T07:22:37.179Z,20.80
2018-05-23T07:25:04.700Z,20.90
2018-05-23T07:27:32.214Z,20.90
2018-05-23T07:30:00.501Z,20.90
2018-05-23T07:32:28.003Z,20.90
2018-05-23T07:34:55.526Z,20.90
2018-05-23T07:37:23.059Z,20.90
2018-05-23T07:39:51.327Z,20.90
2018-05-23T07:42:18.928Z,20.90
2018-05-23T07:44:46.443Z,20.80
2018-05-23T07:47:13.939Z,20.80
2018-05-23T07:49:41.495Z,20.80
2018-05-23T07:52:09.008Z,20.80
2018-05-23T07:54:38.015Z,20.80
2018-05-23T07:57:05.595Z,20.80
2018-05-23T07:59:33.097Z,20.80
2018-05-23T08:02:00.674Z,20.80
2018-05-23T08:04:28.179Z,20.90
2018-05-23T08:06:56.439Z,21.00
2018-05-23T08:09:24.823Z,21.00
2018-05-23T08:11:53.097Z,21.10
2018-05-23T08:14:21.368Z,21.10
2018-05-23T08:16:49.635Z,21.20
2018-05-23T08:19:17.930Z,21.20
2018-05-23T08:21:45.494Z,21.20
2018-05-23T08:24:13.036Z,21.30
2018-05-23T08:26:41.293Z,21.60
2018-05-23T08:29:08.819Z,21.60
2018-05-23T08:31:36.326Z,21.90
2018-05-23T08:34:04.624Z,22.30
2018-05-23T08:36:32.228Z,22.30
2018-05-23T08:38:59.727Z,22.50
2018-05-23T08:41:28.011Z,22.80
2018-05-23T08:43:55.519Z,22.80
2018-05-23T08:46:23.024Z,22.90
2018-05-23T08:48:51.296Z,23.00
2018-05-23T08:51:19.603Z,23.00
2018-05-23T08:53:47.153Z,23.00
2018-05-23T08:56:14.654Z,23.00
2018-05-23T08:58:43.021Z,22.90
2018-05-23T09:01:10.526Z,22.90
2018-05-23T09:03:38.091Z,22.80
2018-05-23T09:06:05.651Z,22.70
2018-05-23T09:08:33.209Z,22.70
2018-05-23T09:11:01.464Z,22.80
2018-05-23T09:13:29.039Z,22.80
2018-05-23T09:15:57.298Z,22.80
2018-05-23T09:18:24.813Z,22.80
2018-05-23T09:20:52.313Z,22.80
2018-05-23T09:23:20.620Z,22.70
2018-05-23T09:25:48.127Z,22.70
2018-05-23T09:28:15.614Z,22.80
2018-05-23T09:30:43.906Z,22.90
2018-05-23T09:33:11.462Z,22.90
2018-05-23T09:35:39.746Z,23.10
2018-05-23T09:38:07.290Z,23.00
2018-05-23T09:40:35.554Z,23.20
2018-05-23T09:43:03.057Z,23.20
2018-05-23T09:45:30.578Z,23.20
2018-05-23T09:47:58.851Z,23.10
2018-05-23T09:50:27.249Z,23.10
2018-05-23T09:52:55.829Z,23.10
2018-05-23T09:55:24.084Z,23.00
2018-05-23T09:57:52.439Z,23.00
2018-05-23T10:00:25.792Z,23.00
2018-05-23T10:02:53.322Z,23.00
2018-05-23T10:05:21.587Z,23.10
2018-05-23T10:07:49.180Z,23.10
2018-05-23T10:10:16.688Z,23.20
2018-05-23T10:12:44.291Z,23.20
2018-05-23T10:15:11.851Z,23.40
2018-05-23T10:17:39.415Z,23.50
2018-05-23T10:20:06.981Z,23.60
2018-05-23T10:22:34.530Z,23.70
2018-05-23T10:25:02.044Z,23.80
2018-05-23T10:27:29.543Z,23.90
2018-05-23T10:29:57.802Z,24.20
2018-05-23T10:32:25.383Z,24.20
2018-05-23T10:34:52.941Z,24.30
2018-05-23T10:37:20.512Z,24.30
2018-05-23T10:39:48.063Z,24.20
2018-05-23T10:42:15.570Z,24.10
2018-05-23T10:44:43.168Z,23.80
2018-05-23T10:47:11.446Z,23.50
2018-05-23T10:49:38.975Z,23.50
2018-05-23T10:52:06.507Z,23.60
2018-05-23T10:54:33.977Z,23.70
2018-05-23T10:57:01.597Z,23.70
2018-05-23T10:59:29.095Z,23.80
2018-05-23T11:01:56.600Z,23.90
2018-05-23T11:04:24.867Z,23.70
2018-05-23T11:06:53.134Z,23.60
2018-05-23T11:09:20.630Z,23.60
2018-05-23T11:11:48.166Z,23.50
2018-05-23T11:14:16.427Z,23.60
2018-05-23T11:16:43.947Z,23.50
2018-05-23T11:19:11.462Z,23.50
2018-05-23T11:21:39.734Z,23.50
2018-05-23T11:24:07.994Z,23.50
2018-05-23T11:26:35.582Z,23.50
2018-05-23T11:29:03.144Z,23.50
2018-05-23T11:31:30.653Z,23.50
2018-05-23T11:33:58.154Z,23.40
2018-05-23T11:36:25.710Z,23.30
2018-05-23T11:38:53.212Z,23.30
2018-05-23T11:41:20.730Z,23.20
2018-05-23T11:43:48.236Z,23.10
2018-05-23T11:46:15.726Z,23.00
2018-05-23T11:48:44.015Z,23.00
2018-05-23T11:51:12.292Z,23.10
2018-05-23T11:53:40.580Z,23.20
2018-05-23T11:56:08.115Z,23.20
2018-05-23T11:58:36.372Z,23.30
2018-05-23T12:01:03.970Z,23.30
2018-05-23T12:03:31.641Z,23.30
2018-05-23T12:05:59.178Z,23.40
2018-05-23T12:08:27.449Z,23.60
2018-05-23T12:10:55.706Z,23.70
2018-05-23T12:13:23.212Z,23.70
2018-05-23T12:15:50.836Z,23.70
2018-05-23T12:18:19.459Z,23.90
2018-05-23T12:20:46.998Z,23.80
2018-05-23T12:23:15.293Z,23.80
2018-05-23T12:25:42.832Z,23.80
2018-05-23T12:28:10.391Z,23.90
2018-05-23T12:30:37.945Z,24.00
2018-05-23T12:33:05.515Z,24.10
2018-05-23T12:35:33.066Z,24.20
2018-05-23T12:38:01.343Z,24.60
2018-05-23T12:40:28.903Z,24.50
2018-05-23T12:42:57.173Z,24.50
2018-05-23T12:45:25.451Z,24.50
2018-05-23T12:47:53.731Z,24.50
2018-05-23T12:50:22.003Z,24.40
2018-05-23T12:52:50.397Z,24.40
2018-05-23T12:55:17.899Z,24.30
2018-05-23T12:57:45.394Z,24.30
2018-05-23T13:00:13.646Z,24.30
2018-05-23T13:02:41.150Z,24.30
2018-05-23T13:05:08.650Z,24.30
2018-05-23T13:07:36.143Z,24.40
2018-05-23T13:10:04.411Z,24.50
2018-05-23T13:12:32.758Z,24.60
2018-05-23T13:15:00.234Z,24.60
2018-05-23T13:17:27.735Z,24.50
2018-05-23T13:19:55.279Z,24.50
2018-05-23T13:22:22.770Z,24.40
2018-05-23T13:24:50.291Z,24.40
2018-05-23T13:27:17.798Z,24.40
2018-05-23T13:29:45.291Z,24.40
2018-05-23T13:32:12.878Z,24.40
2018-05-23T13:34:40.371Z,24.40
2018-05-23T13:37:07.883Z,24.40
2018-05-23T13:39:36.162Z,24.50
2018-05-23T13:42:03.726Z,24.40
2018-05-23T13:44:31.291Z,24.50
2018-05-23T13:46:58.806Z,24.50
2018-05-23T13:49:26.398Z,24.50
2018-05-23T13:51:54.703Z,24.40
2018-05-23T13:54:22.223Z,24.40
2018-05-23T13:56:50.508Z,24.40
2018-05-23T13:59:18.034Z,24.40
2018-05-23T14:01:45.573Z,24.50
2018-05-23T14:04:13.364Z,24.50
2018-05-23T14:06:41.678Z,24.50
2018-05-23T14:09:09.171Z,24.50
2018-05-23T14:11:36.683Z,24.50
2018-05-23T14:14:04.952Z,24.40
2018-05-23T14:16:33.331Z,24.40
2018-05-23T14:19:01.658Z,24.50
2018-05-23T14:21:29.146Z,24.50
2018-05-23T14:23:56.742Z,24.70
2018-05-23T14:26:24.307Z,24.80
2018-05-23T14:28:51.857Z,24.90
2018-05-23T14:31:19.355Z,25.20
2018-05-23T14:33:46.838Z,25.20
2018-05-23T14:36:14.344Z,25.20
2018-05-23T14:38:41.883Z,25.10
2018-05-23T14:41:10.173Z,25.00
2018-05-23T14:43:37.791Z,24.90
2018-05-23T14:46:05.238Z,25.00
2018-05-23T14:48:33.512Z,24.80
2018-05-23T14:51:01.019Z,24.80
2018-05-23T14:53:28.578Z,24.70
2018-05-23T14:55:56.130Z,24.60
2018-05-23T14:58:24.506Z,24.70
2018-05-23T15:00:52.780Z,24.60
2018-05-23T15:03:21.066Z,24.70
2018-05-23T15:05:48.580Z,24.70
2018-05-23T15:08:16.191Z,24.80
2018-05-23T15:10:43.745Z,25.00
2018-05-23T15:13:11.242Z,25.10
2018-05-23T15:15:38.858Z,25.10
2018-05-23T15:18:07.114Z,25.20
2018-05-23T15:20:35.417Z,25.30
2018-05-23T15:23:02.974Z,25.30
2018-05-23T15:25:30.531Z,25.50
2018-05-23T15:27:58.031Z,25.50
2018-05-23T15:30:25.545Z,25.50
2018-05-23T15:32:53.815Z,25.40
2018-05-23T15:35:22.105Z,25.50
2018-05-23T15:37:49.619Z,25.50
2018-05-23T15:40:17.135Z,25.60
2018-05-23T15:42:44.683Z,25.60
2018-05-23T15:45:12.234Z,25.50
2018-05-23T15:47:39.735Z,25.60
2018-05-23T15:50:07.252Z,25.50
2018-05-23T15:52:34.812Z,25.40
2018-05-23T15:57:01.338Z,25.10
2018-05-23T15:59:29.550Z,24.70
2018-05-23T16:01:57.095Z,24.70
2018-05-23T16:04:24.622Z,24.60
2018-05-23T16:06:52.128Z,24.40
2018-05-23T16:09:19.654Z,24.30
2018-05-23T16:11:47.942Z,24.10
2018-05-23T16:14:16.222Z,24.10
2018-05-23T16:16:43.776Z,24.10
2018-05-23T16:19:12.045Z,24.20
2018-05-23T16:21:40.332Z,24.30
2018-05-23T16:24:07.857Z,24.20
2018-05-23T16:26:35.357Z,24.30
2018-05-23T16:29:02.910Z,24.30
2018-05-23T16:31:30.421Z,24.40
2018-05-23T16:33:58.045Z,24.50
2018-05-23T16:36:25.544Z,24.50
2018-05-23T16:38:53.798Z,24.50
2018-05-23T16:41:21.315Z,24.50
2018-05-23T16:43:48.833Z,24.40
2018-05-23T16:46:16.338Z,24.40
2018-05-23T16:48:43.902Z,24.30
2018-05-23T16:51:11.382Z,24.30
2018-05-23T16:53:38.888Z,24.30
2018-05-23T16:56:07.148Z,24.30
2018-05-23T16:58:34.734Z,24.30
2018-05-23T17:01:02.282Z,24.30
2018-05-23T17:03:29.780Z,24.20
2018-05-23T17:05:57.294Z,24.20
2018-05-23T17:08:24.804Z,24.10
2018-05-23T17:10:52.336Z,24.10
2018-05-23T17:13:19.898Z,24.10
2018-05-23T17:15:47.411Z,24.10
2018-05-23T17:18:14.929Z,24.10
2018-05-23T17:20:42.424Z,24.10
2018-05-23T17:23:09.930Z,24.10
2018-05-23T17:25:37.423Z,24.00
2018-05-23T17:28:04.917Z,23.90
2018-05-23T17:30:32.512Z,23.90
2018-05-23T17:33:00.018Z,23.90
2018-05-23T17:35:27.509Z,23.80
2018-05-23T17:37:55.794Z,23.80
2018-05-23T17:40:23.287Z,23.80
2018-05-23T17:42:50.786Z,23.70
2018-05-23T17:45:18.363Z,23.60
2018-05-23T17:47:46.615Z,23.60
2018-05-23T17:50:14.128Z,23.50
2018-05-23T17:52:41.624Z,23.50
2018-05-23T17:55:09.156Z,23.50
2018-05-23T17:57:36.657Z,23.40
2018-05-23T18:00:04.931Z,23.30
2018-05-23T18:02:32.431Z,23.30
2018-05-23T18:04:59.930Z,23.30
2018-05-23T18:07:27.438Z,23.20
2018-05-23T18:09:54.995Z,23.20
2018-05-23T18:12:22.551Z,23.10
2018-05-23T18:14:50.058Z,23.10
2018-05-23T18:17:17.572Z,23.10
2018-05-23T18:19:45.117Z,23.00
2018-05-23T18:22:12.689Z,23.00
2018-05-23T18:24:40.191Z,22.90
2018-05-23T18:27:07.683Z,22.90
2018-05-23T18:29:36.048Z,22.70
2018-05-23T18:32:03.495Z,22.70
2018-05-23T18:34:31.196Z,22.70
2018-05-23T18:36:58.701Z,22.60
2018-05-23T18:39:26.202Z,22.60
2018-05-23T18:41:54.492Z,22.50
2018-05-23T18:44:21.978Z,22.40
2018-05-23T18:46:49.475Z,22.40
2018-05-23T18:49:16.995Z,22.30
2018-05-23T18:51:44.515Z,22.20
2018-05-23T18:54:12.019Z,22.20
2018-05-23T18:56:39.642Z,22.10
2018-05-23T18:59:07.143Z,22.10
2018-05-23T19:01:34.638Z,22.00
2018-05-23T19:04:02.915Z,21.90
2018-05-23T19:06:31.215Z,21.80
2018-05-23T19:08:58.758Z,21.80
2018-05-23T19:11:27.134Z,21.70
2018-05-23T19:13:55.559Z,21.70
2018-05-23T19:16:23.040Z,21.60
2018-05-23T19:18:50.536Z,21.60
2018-05-23T19:21:18.795Z,21.50
2018-05-23T19:23:47.087Z,21.40
2018-05-23T19:26:15.371Z,21.30
2018-05-23T19:28:42.927Z,21.30
2018-05-23T19:31:10.421Z,21.30
2018-05-23T19:33:38.002Z,21.20
2018-05-23T19:36:05.492Z,21.20
2018-05-23T19:38:33.775Z,21.00
2018-05-23T19:41:02.159Z,21.00
2018-05-23T19:43:29.684Z,20.90
2018-05-23T19:45:57.198Z,20.90
2018-05-23T19:48:24.722Z,20.90
2018-05-23T19:50:52.981Z,20.70
2018-05-23T19:53:20.567Z,20.70
2018-05-23T19:55:48.123Z,20.70
2018-05-23T19:58:16.399Z,20.60
2018-05-23T20:00:43.910Z,20.60
2018-05-23T20:03:11.528Z,20.60
2018-05-23T20:05:39.042Z,20.50
2018-05-23T20:08:06.578Z,20.50
2018-05-23T20:10:34.084Z,20.40
2018-05-23T20:13:01.632Z,20.40
2018-05-23T20:15:29.932Z,20.30
2018-05-23T20:17:58.298Z,20.20
2018-05-23T20:20:26.571Z,20.20
2018-05-23T20:22:54.843Z,20.20
2018-05-23T20:25:23.102Z,20.10
2018-05-23T20:27:52.138Z,20.00
2018-05-23T20:30:19.638Z,20.00
2018-05-23T20:32:47.127Z,20.00
2018-05-23T20:35:15.418Z,20.00
2018-05-23T20:37:43.699Z,19.90
2018-05-23T20:40:11.190Z,19.90
2018-05-23T20:42:38.708Z,19.90
2018-05-23T20:45:06.989Z,19.80
2018-05-23T20:47:34.573Z,19.80
2018-05-23T20:50:02.062Z,19.80
2018-05-23T20:52:29.575Z,19.70
2018-05-23T20:54:57.133Z,19.70
2018-05-23T20:57:24.681Z,19.60
2018-05-23T20:59:52.935Z,19.50
2018-05-23T21:02:20.725Z,19.50
2018-05-23T21:04:48.254Z,19.50
2018-05-23T21:07:15.759Z,19.40
2018-05-23T21:09:43.505Z,19.40
2018-05-23T21:12:11.061Z,19.40
2018-05-23T21:14:39.342Z,19.40
2018-05-23T21:17:06.857Z,19.30
2018-05-23T21:19:34.455Z,19.30
2018-05-23T21:22:01.895Z,19.30
2018-05-23T21:24:30.172Z,19.30
2018-05-23T21:26:58.484Z,19.30
2018-05-23T21:29:26.024Z,19.30
2018-05-23T21:31:54.299Z,19.20
2018-05-23T21:34:22.802Z,19.20
2018-05-23T21:36:50.253Z,19.20
2018-05-23T21:39:17.773Z,19.10
2018-05-23T21:41:45.263Z,19.10
2018-05-23T21:44:12.827Z,19.10
2018-05-23T21:46:40.387Z,19.10
2018-05-23T21:49:08.739Z,19.00
2018-05-23T21:51:37.042Z,19.00
2018-05-23T21:54:04.530Z,19.00
2018-05-23T21:56:32.047Z,19.00
2018-05-23T21:59:00.300Z,18.90
2018-05-23T22:01:28.575Z,18.90
2018-05-23T22:03:56.082Z,18.90
2018-05-23T22:06:23.598Z,18.90
2018-05-23T22:08:51.857Z,18.80
2018-05-23T22:11:20.121Z,18.90
2018-05-23T22:13:47.632Z,18.80
2018-05-23T22:16:15.178Z,18.80
2018-05-23T22:18:43.458Z,18.80
2018-05-23T22:21:10.953Z,18.80
2018-05-23T22:23:38.566Z,18.80
2018-05-23T22:26:06.815Z,18.80
2018-05-23T22:28:34.302Z,18.70
2018-05-23T22:31:02.681Z,18.70
2018-05-23T22:33:31.000Z,18.70
2018-05-23T22:35:58.563Z,18.70
2018-05-23T22:38:26.797Z,18.60
2018-05-23T22:40:55.077Z,18.60
2018-05-23T22:43:23.323Z,18.60
2018-05-23T22:45:50.831Z,18.50
2018-05-23T22:48:18.365Z,18.50
2018-05-23T22:50:46.627Z,18.50
2018-05-23T22:53:14.907Z,18.40
2018-05-23T22:55:43.172Z,18.40
2018-05-23T22:58:10.687Z,18.40
2018-05-23T23:00:38.218Z,18.40
2018-05-23T23:03:05.767Z,18.30
2018-05-23T23:05:34.063Z,18.30
2018-05-23T23:08:01.560Z,18.30
2018-05-23T23:10:29.051Z,18.30
2018-05-23T23:12:57.511Z,18.20
2018-05-23T23:15:25.102Z,18.20
2018-05-23T23:17:53.538Z,18.10
2018-05-23T23:20:21.061Z,18.10
2018-05-23T23:22:48.547Z,18.10
2018-05-23T23:25:16.060Z,18.00
2018-05-23T23:27:43.586Z,18.00
2018-05-23T23:30:12.604Z,18.00
2018-05-23T23:32:40.888Z,18.00
2018-05-23T23:35:08.455Z,17.90
2018-05-23T23:37:35.999Z,17.90
2018-05-23T23:40:04.271Z,17.90
2018-05-23T23:42:32.532Z,17.90
2018-05-23T23:45:00.047Z,17.80
2018-05-23T23:47:27.547Z,17.80
2018-05-23T23:49:55.055Z,17.80
2018-05-23T23:52:22.554Z,17.70
2018-05-23T23:54:50.078Z,17.70
2018-05-23T23:57:17.611Z,17.60
2018-05-23T23:59:45.882Z,17.60
